Nearby METAR Reports

 

KBJC - Broomfield/Jeffc, Colorado, USA
Distance from station: SSW 3mi, 5km
Updated: Tue, 20-Feb-2018 9:47am MST
Mostly cloudy
Mostly cloudy
 Wind from E
Wind: E 5 mph , 7 km/h
Temperature: 5°F , -15°C
Wind Chill: -5°F , -21°C
Dew Point: -0°F , -18°C
Humidity: 78%
Barometer: 29.92 inHg , 1013.2 hPa
Clouds: Mostly cloudy
Visibility: 10 miles , 16 km
Cloud details: Few Clouds 200 ft
Mostly cloudy 1500 ft
Mostly cloudy 10000 ft
2018/02/20 16:47 KBJC 201647Z 09004KT 10SM FEW002 BKN015 BKN100 M15/M18 A2992 RMK VIS 5SM SW-NW
KEIK - Erie Muni, Colorado, USA
Distance from station: N 5mi, 9km
Updated: Tue, 20-Feb-2018 10:00am MST
Clear
Clear
 Wind from ESE
Wind: ESE 6 mph , 9 km/h
Temperature: 5°F , -15°C
Wind Chill: -6°F , -21°C
Dew Point: 1°F , -17°C
Humidity: 85%
Barometer: 30.02 inHg , 1016.6 hPa
Clouds: Clear
Visibility: 10 miles , 16 km
2018/02/20 17:00 KEIK 201700Z AUTO 11005KT 10SM CLR M15/M17 A3002 RMK AO2 T11501174
 
KBDU - Boulder Muni, Colorado, USA
Distance from station: NW 11mi, 17km
Updated: Tue, 20-Feb-2018 9:53am MST
Partly cloudy
Partly cloudy
 Wind from ENE
Wind: ENE 6 mph , 9 km/h
Temperature: 9°F , -13°C
Wind Chill: -1°F , -18°C
Dew Point: 1°F , -17°C
Humidity: 72%
Barometer: 29.95 inHg , 1014.2 hPa
Clouds: Partly cloudy
Visibility: 10 miles , 16 km
Cloud details: Partly cloudy 1500 ft
2018/02/20 16:53 KBDU 201653Z AUTO 06005KT 10SM SCT015 M13/M17 A2995 RMK AO2
KLMO - Longmont/Vbrand, Colorado, USA
Distance from station: NNW 16mi, 27km
Updated: Tue, 20-Feb-2018 9:55am MST
Clear
Clear
 Wind from SE
Wind: SE 8 mph , 13 km/h
Temperature: 10°F , -12°C
Wind Chill: -2°F , -19°C
Dew Point: 1°F , -17°C
Humidity: 67%
Barometer: 30.00 inHg , 1015.9 hPa
Clouds: Clear
Visibility: 10 miles , 16 km
2018/02/20 16:55 KLMO 201655Z AUTO 14007KT 10SM CLR M12/M17 A3000 RMK AO2 P0001 T11201169
 
KBKF - Buckley Angb/Den, Colorado, USA
Distance from station: SE 23mi, 37km
Updated: Tue, 20-Feb-2018 9:58am MST
Mostly cloudy
Mostly cloudy
 Wind from E
Wind: E 8 mph , 13 km/h
Temperature: 3°F , -16°C
Wind Chill: -10°F , -23°C
Dew Point: -2°F , -19°C
Humidity: 78%
Barometer: 29.92 inHg , 1013.2 hPa
Clouds: Mostly cloudy
Visibility: 10 miles , 16 km
Cloud details: Few Clouds 2000 ft
Partly cloudy 8000 ft
Mostly cloudy 19000 ft
2018/02/20 16:58 KBKF 201658Z 10007KT 10SM FEW020 SCT080 BKN190 M16/M19 A2992 RMK AO2A SLP217 T11631194
KDEN - Denver (dia), Colorado, USA
Distance from station: ESE 23mi, 37km
Updated: Tue, 20-Feb-2018 9:53am MST
Mostly cloudy
Mostly cloudy
 Wind from SE
Wind: SE 8 mph , 13 km/h
Temperature: 3°F , -16°C
Wind Chill: -10°F , -23°C
Dew Point: -4°F , -20°C
Humidity: 72%
Barometer: 29.94 inHg , 1013.9 hPa
Clouds: Mostly cloudy
Visibility: 10 miles , 16 km
Cloud details: Mostly cloudy 9000 ft
Mostly cloudy 20000 ft
2018/02/20 16:53 KDEN 201653Z 14007KT 10SM BKN090 BKN200 M16/M20 A2994 RMK AO2 SLP220 T11611200
 
KAPA - Denver/Arapahoe, Colorado, USA
Distance from station: SSE 28mi, 46km
Updated: Tue, 20-Feb-2018 9:53am MST
Few Clouds
Few Clouds
 Wind from SE
Wind: SE 6 mph , 9 km/h
Temperature: 1°F , -17°C
Wind Chill: -11°F , -24°C
Dew Point: -2°F , -19°C
Humidity: 85%
Barometer: 29.90 inHg , 1012.5 hPa
Clouds: Few Clouds
Visibility: 10 miles , 16 km
Cloud details: Few Clouds 8500 ft
2018/02/20 16:53 KAPA 201653Z 14005KT 10SM FEW085 M17/M19 A2990 RMK AO2 SLP227 T11671189
KFTG - Denver F. Range, Colorado, USA
Distance from station: ESE 30mi, 48km
Updated: Tue, 20-Feb-2018 9:50am MST
Mostly cloudy
Mostly cloudy
 Wind from SE
Wind: SE 10 mph , 17 km/h
Temperature: 7°F , -14°C
Wind Chill: -7°F , -22°C
Dew Point: -0°F , -18°C
Humidity: 72%
Barometer: 29.95 inHg , 1014.2 hPa
Clouds: Mostly cloudy
Visibility: 10 miles , 16 km
Cloud details: Partly cloudy 7000 ft
Mostly cloudy 9000 ft
2018/02/20 16:50 KFTG 201650Z 13009KT 10SM SCT070 BKN090 M14/M18 A2995
 
KFNL - Ft Collins/Lovel, Colorado, USA
Distance from station: N 35mi, 57km
Updated: Tue, 20-Feb-2018 9:56am MST
Clear
Clear
 Wind from S
Wind: S 10 mph , 17 km/h
Temperature: 3°F , -16°C
Wind Chill: -12°F , -24°C
Dew Point: -2°F , -19°C
Humidity: 78%
Barometer: 29.99 inHg , 1015.6 hPa
Clouds: Clear
Visibility: 10 miles , 16 km
2018/02/20 16:56 KFNL 201656Z AUTO 19009KT 10SM CLR M16/M19 A2999 RMK AO2 SNB13E23 SLP239 P0000 T11561189 FZRANO
K0CO - Berthoud Pass, Colorado, USA
Distance from station: WSW 38mi, 61km
Updated: Tue, 20-Feb-2018 9:53am MST
Haze, Overcast
Haze, Overcast
 Wind from W
Wind: W 29 mph , 46 km/h
Temperature: -8°F , -22°C
Wind Chill: -36°F , -38°C
Dew Point: -18°F , -28°C
Humidity: 58%
Barometer: 29.53 inHg , 1000 hPa
Summary: Haze
Clouds: Overcast
Visibility: 2 1/2 miles , 4 km
Cloud details: Partly cloudy 1000 ft
Mostly cloudy 1700 ft
Overcast 2400 ft
2018/02/20 16:53 K0CO 201653Z AUTO 28025KT 2 1/2SM HZ SCT010 BKN017 OVC024 M22/M28 A2953 RMK AO2 VIS 1 1/2V4
 
KGXY - Greeley/Weld, Colorado, USA
Distance from station: NE 41mi, 66km
Updated: Tue, 20-Feb-2018 9:56am MST
Clear
Clear
 Wind from calm
Wind: Calm
Temperature: -0°F , -18°C
Dew Point: -8°F , -22°C
Humidity: 71%
Barometer: 30.03 inHg , 1016.9 hPa
Clouds: Clear
Visibility: 10 miles , 16 km
2018/02/20 16:56 KGXY 201656Z AUTO 00000KT 10SM CLR M18/M22 A3003 RMK AO2 SLP272 T11831222 FZRANO